KPHT/PHT METAR and TAF weather

Enter ICAO airport designator
Station Type Date Time Source
KPHT METAR 2021/03/06 05:15 UTC NOAA

KPHT 060515Z AUTO 01006KT 10SM FEW120 05/M03 A3028 RMK A01


Station Type Date Time Source
KPHT Decoded METAR 2021/03/06 05:15 UTC NOAA

Station name not available
Mar 06, 2021 - 12:15 AM EST / 2021.03.06 0515 UTC
Wind: from the N (010 degrees) at 7 MPH (6 KT):0
Visibility: 10 mile(s):0
Sky conditions: mostly clear
Temperature: 41 F (5 C)
Dew Point: 26 F (-3 C)
Relative Humidity: 56%
Pressure (altimeter): 30.28 in. Hg (1025 hPa)
ob: KPHT 060515Z AUTO 01006KT 10SM FEW120 05/M03 A3028 RMK A01
cycle: 5

Station Type Date Time Source
KPHT TAF UTC NOAA

Error!

Example: see airport list